createdAt,value
2022-11-05T00:02:43.804Z,7.11
2022-11-05T00:05:30.619Z,7.04
2022-11-05T00:08:18.494Z,7.10
2022-11-05T00:10:46.415Z,7.16
2022-11-05T00:13:32.805Z,7.29
2022-11-05T00:16:18.201Z,7.27
2022-11-05T00:19:06.125Z,7.34
2022-11-05T00:21:51.551Z,7.30
2022-11-05T00:24:38.158Z,7.33
2022-11-05T00:27:06.195Z,7.27
2022-11-05T00:29:34.212Z,7.31
2022-11-05T00:32:02.100Z,7.35
2022-11-05T00:34:30.040Z,7.25
2022-11-05T00:36:57.939Z,7.18
2022-11-05T00:39:27.541Z,7.10
2022-11-05T00:42:09.258Z,7.07
2022-11-05T00:44:54.294Z,7.11
2022-11-05T00:47:39.746Z,7.10
2022-11-05T00:50:10.708Z,7.03
2022-11-05T00:52:57.192Z,7.19
2022-11-05T00:55:33.393Z,7.23
2022-11-05T00:58:03.703Z,7.26
2022-11-05T01:00:32.912Z,7.15
2022-11-05T01:03:02.157Z,7.14
2022-11-05T01:05:30.899Z,7.17
2022-11-05T01:07:59.132Z,7.12
2022-11-05T01:10:28.905Z,6.98
2022-11-05T01:12:57.311Z,7.11
2022-11-05T01:15:25.232Z,7.13
2022-11-05T01:17:53.292Z,7.04
2022-11-05T01:20:21.349Z,7.00
2022-11-05T01:22:49.305Z,7.09
2022-11-05T01:25:17.251Z,6.97
2022-11-05T01:27:46.679Z,7.02
2022-11-05T01:30:15.179Z,6.89
2022-11-05T01:32:43.195Z,6.95
2022-11-05T01:35:15.076Z,6.83
2022-11-05T01:37:43.116Z,6.98
2022-11-05T01:40:12.991Z,6.91
2022-11-05T01:42:40.916Z,6.99
2022-11-05T01:45:15.406Z,6.88
2022-11-05T01:47:59.537Z,6.89
2022-11-05T01:50:37.584Z,6.84
2022-11-05T01:53:11.496Z,6.91
2022-11-05T01:55:43.375Z,6.86
2022-11-05T01:58:14.226Z,6.85
2022-11-05T02:00:43.984Z,6.85
2022-11-05T02:03:13.303Z,7.01
2022-11-05T02:05:42.152Z,6.95
2022-11-05T02:08:11.700Z,6.97
2022-11-05T02:10:40.222Z,6.80
2022-11-05T02:13:08.408Z,6.90
2022-11-05T02:15:41.632Z,6.82
2022-11-05T02:18:18.057Z,6.78
2022-11-05T02:20:52.351Z,6.62
2022-11-05T02:23:55.990Z,6.60
2022-11-05T02:26:59.787Z,6.41
2022-11-05T02:30:06.056Z,6.53
2022-11-05T02:33:18.400Z,6.58
2022-11-05T02:35:55.612Z,6.68
2022-11-05T02:38:32.873Z,6.67
2022-11-05T02:41:07.910Z,6.55
2022-11-05T02:43:47.926Z,6.57
2022-11-05T02:46:27.846Z,6.39
2022-11-05T02:49:00.791Z,6.46
2022-11-05T02:51:32.864Z,6.41
2022-11-05T02:54:05.875Z,6.55
2022-11-05T02:56:35.048Z,6.51
2022-11-05T02:59:02.971Z,6.55
2022-11-05T03:01:30.992Z,6.37
2022-11-05T03:04:01.723Z,6.37
2022-11-05T03:06:50.423Z,6.34
2022-11-05T03:09:51.059Z,6.42
2022-11-05T03:12:26.952Z,6.32
2022-11-05T03:15:02.449Z,6.32
2022-11-05T03:17:35.759Z,6.40
2022-11-05T03:20:15.149Z,6.26
2022-11-05T03:22:46.692Z,6.40
2022-11-05T03:25:18.898Z,6.41
2022-11-05T03:27:49.337Z,6.35
2022-11-05T03:30:18.561Z,6.29
2022-11-05T03:32:48.235Z,6.29
2022-11-05T03:35:20.147Z,6.15
2022-11-05T03:37:50.525Z,6.25
2022-11-05T03:40:20.283Z,6.19
2022-11-05T03:42:50.703Z,6.22
2022-11-05T03:45:23.185Z,6.12
2022-11-05T03:47:52.128Z,6.10
2022-11-05T03:50:24.811Z,6.19
2022-11-05T03:52:55.939Z,6.17
2022-11-05T03:55:27.799Z,6.13
2022-11-05T03:57:56.558Z,6.22
2022-11-05T04:00:24.688Z,6.15
2022-11-05T04:02:52.944Z,6.21
2022-11-05T04:05:22.388Z,6.09
2022-11-05T04:08:13.876Z,6.11
2022-11-05T04:10:59.504Z,6.19
2022-11-05T04:13:27.968Z,5.93
2022-11-05T04:16:14.676Z,5.87
2022-11-05T04:18:42.947Z,6.03
2022-11-05T04:21:29.684Z,5.92
2022-11-05T04:24:09.788Z,5.89
2022-11-05T04:26:38.736Z,5.90
2022-11-05T04:29:23.927Z,5.78
2022-11-05T04:31:52.011Z,5.81
2022-11-05T04:34:22.043Z,5.80
2022-11-05T04:36:51.935Z,5.85
2022-11-05T04:39:20.823Z,5.79
2022-11-05T04:41:49.126Z,5.93
2022-11-05T04:44:17.577Z,5.79
2022-11-05T04:46:45.484Z,5.98
2022-11-05T04:49:13.640Z,5.82
2022-11-05T04:51:41.610Z,5.64
2022-11-05T04:54:10.873Z,5.67
2022-11-05T04:56:38.777Z,5.66
2022-11-05T04:59:06.650Z,5.76
2022-11-05T05:01:34.651Z,5.63
2022-11-05T05:04:02.589Z,5.59
2022-11-05T05:06:30.519Z,5.62
2022-11-05T05:08:58.460Z,5.68
2022-11-05T05:11:27.761Z,5.60
2022-11-05T05:13:55.669Z,5.78
2022-11-05T05:16:24.943Z,5.78
2022-11-05T05:18:53.621Z,5.85
2022-11-05T05:21:40.441Z,5.88
2022-11-05T05:24:10.136Z,5.68
2022-11-05T05:26:40.845Z,5.75
2022-11-05T05:29:08.928Z,5.66
2022-11-05T05:31:37.233Z,5.55
2022-11-05T05:34:05.655Z,5.45
2022-11-05T05:36:33.872Z,5.54
2022-11-05T05:39:01.777Z,5.65
2022-11-05T05:41:29.676Z,5.54
2022-11-05T05:43:58.980Z,5.59
2022-11-05T05:46:26.888Z,5.46
2022-11-05T05:48:54.847Z,5.35
2022-11-05T05:51:22.734Z,5.51
2022-11-05T05:53:50.660Z,5.49
2022-11-05T05:56:20.589Z,5.48
2022-11-05T05:58:48.726Z,5.51
2022-11-05T06:01:20.149Z,5.58
2022-11-05T06:03:48.952Z,5.43
2022-11-05T06:06:19.813Z,5.51
2022-11-05T06:08:48.259Z,5.69
2022-11-05T06:11:16.388Z,5.75
2022-11-05T06:13:44.345Z,5.68
2022-11-05T06:16:12.515Z,5.73
2022-11-05T06:18:41.909Z,5.66
2022-11-05T06:21:11.096Z,5.56
2022-11-05T06:23:40.037Z,5.62
2022-11-05T06:26:09.503Z,5.59
2022-11-05T06:28:37.524Z,5.58
2022-11-05T06:31:05.968Z,5.57
2022-11-05T06:33:33.884Z,5.54
2022-11-05T06:36:03.761Z,5.52
2022-11-05T06:38:33.776Z,5.31
2022-11-05T06:41:05.796Z,5.17
2022-11-05T06:43:35.271Z,5.13
2022-11-05T06:46:03.755Z,5.19
2022-11-05T06:48:31.667Z,5.15
2022-11-05T06:50:59.592Z,5.14
2022-11-05T06:53:29.017Z,5.09
2022-11-05T06:55:56.939Z,5.12
2022-11-05T06:58:24.823Z,5.10
2022-11-05T07:00:52.802Z,5.19
2022-11-05T07:03:20.717Z,5.25
2022-11-05T07:05:49.905Z,5.41
2022-11-05T07:08:18.282Z,5.25
2022-11-05T07:10:47.617Z,5.24
2022-11-05T07:13:16.241Z,5.27
2022-11-05T07:15:44.504Z,5.25
2022-11-05T07:18:12.411Z,5.38
2022-11-05T07:20:40.320Z,5.29
2022-11-05T07:23:09.785Z,5.39
2022-11-05T07:25:38.145Z,5.42
2022-11-05T07:28:07.510Z,5.62
2022-11-05T07:30:36.309Z,5.65
2022-11-05T07:33:04.432Z,5.64
2022-11-05T07:35:32.365Z,5.61
2022-11-05T07:38:00.327Z,5.67
2022-11-05T07:40:29.976Z,5.71
2022-11-05T07:42:59.755Z,5.76
2022-11-05T07:45:30.913Z,5.79
2022-11-05T07:48:00.495Z,5.90
2022-11-05T07:50:30.801Z,5.90
2022-11-05T07:53:01.880Z,5.96
2022-11-05T07:55:30.025Z,6.06
2022-11-05T07:57:57.968Z,6.09
2022-11-05T08:00:28.100Z,6.22
2022-11-05T08:03:06.822Z,6.25
2022-11-05T08:05:37.825Z,6.27
2022-11-05T08:08:06.638Z,6.35
2022-11-05T08:10:35.324Z,6.42
2022-11-05T08:13:03.624Z,6.53
2022-11-05T08:15:33.003Z,6.52
2022-11-05T08:18:01.229Z,6.59
2022-11-05T08:20:29.530Z,6.59
2022-11-05T08:22:57.484Z,6.72
2022-11-05T08:25:26.153Z,6.88
2022-11-05T08:27:57.068Z,6.78
2022-11-05T08:30:25.602Z,6.96
2022-11-05T08:32:57.838Z,6.98
2022-11-05T08:35:26.018Z,7.03
2022-11-05T08:37:57.627Z,7.18
2022-11-05T08:40:25.949Z,7.32
2022-11-05T08:42:53.853Z,7.37
2022-11-05T08:45:21.756Z,7.29
2022-11-05T08:47:49.688Z,7.39
2022-11-05T08:50:19.200Z,7.46
2022-11-05T08:52:47.492Z,7.69
2022-11-05T08:55:18.891Z,7.65
2022-11-05T08:57:47.203Z,7.84
2022-11-05T09:00:16.373Z,7.90
2022-11-05T09:02:44.406Z,7.93
2022-11-05T09:05:12.439Z,8.01
2022-11-05T09:07:41.733Z,8.17
2022-11-05T09:10:10.468Z,8.21
2022-11-05T09:12:38.371Z,8.22
2022-11-05T09:15:06.903Z,8.24
2022-11-05T09:17:34.800Z,8.52
2022-11-05T09:20:03.741Z,8.63
2022-11-05T09:22:31.857Z,8.58
2022-11-05T09:25:01.161Z,8.76
2022-11-05T09:27:29.038Z,8.94
2022-11-05T09:29:56.912Z,8.97
2022-11-05T09:32:24.831Z,8.79
2022-11-05T09:34:52.713Z,9.02
2022-11-05T09:37:21.962Z,9.20
2022-11-05T09:39:49.844Z,9.34
2022-11-05T09:42:20.877Z,9.49
2022-11-05T09:44:50.929Z,9.52
2022-11-05T09:47:21.822Z,9.65
2022-11-05T09:49:52.644Z,9.60
2022-11-05T09:52:22.997Z,9.94
2022-11-05T09:54:51.591Z,9.95
2022-11-05T09:57:24.109Z,10.31
2022-11-05T09:59:54.088Z,10.33
2022-11-05T10:02:24.300Z,10.24
2022-11-05T10:04:55.567Z,10.35
2022-11-05T10:07:27.084Z,10.30
2022-11-05T10:09:59.363Z,10.23
2022-11-05T10:12:33.062Z,10.23
2022-11-05T10:15:08.631Z,10.10
2022-11-05T10:17:39.152Z,10.10
2022-11-05T10:20:11.888Z,10.01
2022-11-05T10:22:41.979Z,9.95
2022-11-05T10:25:19.184Z,10.01
2022-11-05T10:27:51.988Z,10.17
2022-11-05T10:30:21.099Z,10.25
2022-11-05T10:32:49.854Z,10.41
2022-11-05T10:35:22.611Z,10.46
2022-11-05T10:37:51.362Z,10.41
2022-11-05T10:40:31.394Z,10.45
2022-11-05T10:43:04.942Z,10.40
2022-11-05T10:45:39.564Z,10.38
2022-11-05T10:48:23.475Z,10.46
2022-11-05T10:50:51.401Z,10.46
2022-11-05T10:53:22.652Z,10.64
2022-11-05T10:55:52.120Z,10.95
2022-11-05T10:58:25.505Z,10.84
2022-11-05T11:01:05.613Z,10.83
2022-11-05T11:03:40.618Z,10.64
2022-11-05T11:06:24.710Z,10.67
2022-11-05T11:08:54.164Z,10.84
2022-11-05T11:11:34.046Z,11.13
2022-11-05T11:14:05.990Z,11.26
2022-11-05T11:16:37.974Z,11.00
2022-11-05T11:19:07.438Z,10.97
2022-11-05T11:21:35.349Z,10.98
2022-11-05T11:24:06.918Z,10.96
2022-11-05T11:26:36.868Z,10.96
2022-11-05T11:29:12.841Z,11.31
2022-11-05T11:31:41.708Z,11.55
2022-11-05T11:34:16.812Z,11.68
2022-11-05T11:36:47.154Z,11.59
2022-11-05T11:39:19.625Z,11.87
2022-11-05T11:41:51.504Z,12.18
2022-11-05T11:44:24.557Z,12.24
2022-11-05T11:46:54.538Z,12.15
2022-11-05T11:49:32.770Z,12.24
2022-11-05T11:52:02.479Z,12.27
2022-11-05T11:54:32.286Z,12.30
2022-11-05T11:57:00.229Z,12.32
2022-11-05T12:00:01.826Z,12.17
2022-11-05T12:02:46.626Z,12.41
2022-11-05T12:05:31.221Z,12.50
2022-11-05T12:08:05.033Z,12.59
2022-11-05T12:10:42.696Z,12.51
2022-11-05T12:13:56.271Z,12.52
2022-11-05T12:16:34.369Z,12.67
2022-11-05T12:19:11.970Z,12.58
2022-11-05T12:21:58.943Z,12.75
2022-11-05T12:24:59.462Z,12.94
2022-11-05T12:27:37.604Z,12.81
2022-11-05T12:30:09.066Z,12.78
2022-11-05T12:32:48.672Z,12.97
2022-11-05T12:35:28.736Z,12.80
2022-11-05T12:38:03.813Z,12.94
2022-11-05T12:40:42.617Z,12.96
2022-11-05T12:43:19.766Z,13.07
2022-11-05T12:45:52.448Z,12.78
2022-11-05T12:48:37.088Z,12.70
2022-11-05T12:51:14.376Z,12.71
2022-11-05T12:53:51.234Z,12.42
2022-11-05T12:56:25.959Z,12.18
2022-11-05T12:59:00.301Z,12.14
2022-11-05T13:01:33.856Z,12.09
2022-11-05T13:04:08.863Z,12.20
2022-11-05T13:06:40.361Z,12.30
2022-11-05T13:09:13.676Z,12.48
2022-11-05T13:11:46.279Z,12.47
2022-11-05T13:14:16.213Z,12.23
2022-11-05T13:16:47.483Z,12.39
2022-11-05T13:19:20.396Z,12.60
2022-11-05T13:21:51.987Z,12.42
2022-11-05T13:24:22.468Z,12.59
2022-11-05T13:26:54.164Z,12.32
2022-11-05T13:29:24.592Z,12.32
2022-11-05T13:31:57.494Z,11.95
2022-11-05T13:34:26.792Z,11.92
2022-11-05T13:37:14.887Z,11.75
2022-11-05T13:39:45.557Z,12.03
2022-11-05T13:42:41.502Z,12.00
2022-11-05T13:45:28.416Z,11.90
2022-11-05T13:48:23.848Z,12.12
2022-11-05T13:51:13.420Z,11.96
2022-11-05T13:53:53.223Z,12.04
2022-11-05T13:56:30.634Z,12.15
2022-11-05T13:59:07.345Z,12.27
2022-11-05T14:01:47.002Z,12.13
2022-11-05T14:04:19.100Z,12.21
2022-11-05T14:06:48.506Z,12.13
2022-11-05T14:09:21.100Z,11.93
2022-11-05T14:11:51.248Z,11.96
2022-11-05T14:14:20.720Z,11.98
2022-11-05T14:16:50.906Z,11.92
2022-11-05T14:19:35.035Z,11.88
2022-11-05T14:22:37.561Z,11.68
2022-11-05T14:25:38.697Z,11.57
2022-11-05T14:28:29.636Z,11.42
2022-11-05T14:30:57.664Z,11.46
2022-11-05T14:33:33.884Z,11.53
2022-11-05T14:36:30.926Z,11.35
2022-11-05T14:39:13.735Z,11.38
2022-11-05T14:42:12.894Z,11.33
2022-11-05T14:45:01.658Z,11.26
2022-11-05T14:47:31.353Z,11.36
2022-11-05T14:50:03.209Z,11.28
2022-11-05T14:52:31.128Z,11.10
2022-11-05T14:55:00.441Z,11.06
2022-11-05T14:58:07.361Z,10.98
2022-11-05T15:00:53.086Z,11.05
2022-11-05T15:03:49.792Z,11.03
2022-11-05T15:06:27.392Z,10.87
2022-11-05T15:09:05.672Z,10.76
2022-11-05T15:11:39.221Z,10.76
2022-11-05T15:14:09.023Z,10.67
2022-11-05T15:16:41.659Z,10.72
2022-11-05T15:19:17.660Z,10.58
2022-11-05T15:21:46.062Z,10.59
2022-11-05T15:24:16.120Z,10.52
2022-11-05T15:26:48.984Z,10.52
2022-11-05T15:29:19.334Z,10.53
2022-11-05T15:31:47.860Z,10.56
2022-11-05T15:34:22.561Z,10.48
2022-11-05T15:36:53.508Z,10.44
2022-11-05T15:39:34.341Z,10.48
2022-11-05T15:42:08.288Z,10.42
2022-11-05T15:44:40.725Z,10.46
2022-11-05T15:47:14.285Z,10.36
2022-11-05T15:49:43.871Z,10.32
2022-11-05T15:52:13.722Z,10.31
2022-11-05T15:54:41.892Z,10.25
2022-11-05T15:57:21.184Z,10.23
2022-11-05T15:59:49.376Z,10.24
2022-11-05T16:02:27.068Z,10.22
2022-11-05T16:04:55.119Z,10.28
2022-11-05T16:07:23.094Z,10.23
2022-11-05T16:09:56.647Z,10.15
2022-11-05T16:12:36.818Z,10.11
2022-11-05T16:15:20.429Z,10.14
2022-11-05T16:17:52.272Z,10.11
2022-11-05T16:20:29.379Z,10.10
2022-11-05T16:22:59.586Z,10.08
2022-11-05T16:25:39.015Z,10.05
2022-11-05T16:28:21.695Z,10.05
2022-11-05T16:30:56.428Z,10.07
2022-11-05T16:33:25.255Z,10.07
2022-11-05T16:35:53.327Z,10.01
2022-11-05T16:38:21.541Z,9.98
2022-11-05T16:40:49.488Z,9.99
2022-11-05T16:43:21.178Z,9.96
2022-11-05T16:45:49.368Z,9.90
2022-11-05T16:48:17.860Z,9.83
2022-11-05T16:50:46.359Z,9.85
2022-11-05T16:53:14.384Z,9.84
2022-11-05T16:55:43.842Z,9.83
2022-11-05T16:58:22.320Z,9.76
2022-11-05T17:00:51.479Z,9.74
2022-11-05T17:03:19.711Z,9.70
2022-11-05T17:05:48.037Z,9.68
2022-11-05T17:08:16.037Z,9.69
2022-11-05T17:10:44.072Z,9.66
2022-11-05T17:13:15.082Z,9.62
2022-11-05T17:15:45.515Z,9.60
2022-11-05T17:18:18.181Z,9.54
2022-11-05T17:20:48.362Z,9.51
2022-11-05T17:23:18.212Z,9.49
2022-11-05T17:25:48.906Z,9.54
2022-11-05T17:28:17.572Z,9.53
2022-11-05T17:30:52.336Z,9.48
2022-11-05T17:33:21.414Z,9.51
2022-11-05T17:35:49.436Z,9.50
2022-11-05T17:38:17.392Z,9.46
2022-11-05T17:40:45.391Z,9.49
2022-11-05T17:43:13.957Z,9.54
2022-11-05T17:45:43.878Z,9.58
2022-11-05T17:48:13.216Z,9.60
2022-11-05T17:50:42.254Z,9.57
2022-11-05T17:53:10.564Z,9.58
2022-11-05T17:55:38.940Z,9.60
2022-11-05T17:58:06.828Z,9.59
2022-11-05T18:00:34.803Z,9.56
2022-11-05T18:03:02.934Z,9.52
2022-11-05T18:05:32.384Z,9.50
2022-11-05T18:08:00.764Z,9.52
2022-11-05T18:10:28.777Z,9.49
2022-11-05T18:12:56.715Z,9.49
2022-11-05T18:15:24.716Z,9.48
2022-11-05T18:17:52.616Z,9.46
2022-11-05T18:20:21.849Z,9.42
2022-11-05T18:22:51.865Z,9.43
2022-11-05T18:25:19.888Z,9.42
2022-11-05T18:27:47.828Z,9.42
2022-11-05T18:30:16.069Z,9.43
2022-11-05T18:32:44.382Z,9.46
2022-11-05T18:35:13.230Z,9.43
2022-11-05T18:37:41.263Z,9.46
2022-11-05T18:40:13.644Z,9.43
2022-11-05T18:42:41.732Z,9.41
2022-11-05T18:45:11.036Z,9.40
2022-11-05T18:47:39.108Z,9.40
2022-11-05T18:50:08.090Z,9.40
2022-11-05T18:52:36.172Z,9.40
2022-11-05T18:55:04.166Z,9.42
2022-11-05T18:57:33.972Z,9.41
2022-11-05T19:00:01.898Z,9.41
2022-11-05T19:02:30.084Z,9.42
2022-11-05T19:05:27.526Z,9.46
2022-11-05T19:07:46.131Z,9.51
2022-11-05T19:10:14.131Z,9.46
2022-11-05T19:12:43.686Z,9.42
2022-11-05T19:15:12.073Z,9.43
2022-11-05T19:17:39.986Z,9.44
2022-11-05T19:20:09.489Z,9.40
2022-11-05T19:22:37.463Z,9.37
2022-11-05T19:25:06.159Z,9.36
2022-11-05T19:27:36.224Z,9.36
2022-11-05T19:30:06.214Z,9.34
2022-11-05T19:32:34.174Z,9.32
2022-11-05T19:35:02.077Z,9.29
2022-11-05T19:37:29.984Z,9.30
2022-11-05T19:39:58.151Z,9.25
2022-11-05T19:42:26.136Z,9.26
2022-11-05T19:44:54.048Z,9.22
2022-11-05T19:47:23.388Z,9.25
2022-11-05T19:49:51.316Z,9.23
2022-11-05T19:52:19.258Z,9.23
2022-11-05T19:54:47.219Z,9.20
2022-11-05T19:57:15.087Z,9.17
2022-11-05T19:59:43.006Z,9.17
2022-11-05T20:02:15.939Z,9.17
2022-11-05T20:04:45.608Z,9.16
2022-11-05T20:07:13.547Z,9.14
2022-11-05T20:09:41.639Z,9.13
2022-11-05T20:12:09.589Z,9.12
2022-11-05T20:14:37.609Z,9.12
2022-11-05T20:17:05.575Z,9.11
2022-11-05T20:19:33.632Z,9.11
2022-11-05T20:22:03.027Z,9.08
2022-11-05T20:24:31.744Z,9.08
2022-11-05T20:26:59.676Z,9.05
2022-11-05T20:29:33.829Z,9.12
2022-11-05T20:32:03.686Z,9.08
2022-11-05T20:34:32.106Z,9.06
2022-11-05T20:37:00.032Z,9.05
2022-11-05T20:39:29.356Z,9.11
2022-11-05T20:41:57.532Z,9.09
2022-11-05T20:44:25.477Z,9.09
2022-11-05T20:46:53.364Z,9.14
2022-11-05T20:49:25.099Z,9.16
2022-11-05T20:51:53.891Z,9.16
2022-11-05T20:54:21.857Z,9.17
2022-11-05T20:56:51.116Z,9.13
2022-11-05T20:59:19.504Z,9.15
2022-11-05T21:01:47.571Z,9.15
2022-11-05T21:04:15.596Z,9.19
2022-11-05T21:06:43.519Z,9.14
2022-11-05T21:09:11.391Z,9.10
2022-11-05T21:11:53.127Z,9.09
2022-11-05T21:14:22.512Z,9.10
2022-11-05T21:16:50.441Z,9.06
2022-11-05T21:19:18.423Z,9.08
2022-11-05T21:21:46.428Z,9.02
2022-11-05T21:24:14.294Z,9.01
2022-11-05T21:26:42.260Z,8.98
2022-11-05T21:29:10.732Z,8.97
2022-11-05T21:31:40.077Z,8.94
2022-11-05T21:34:08.037Z,8.98
2022-11-05T21:36:36.016Z,8.92
2022-11-05T21:39:07.697Z,8.89
2022-11-05T21:41:38.956Z,8.88
2022-11-05T21:44:06.864Z,8.85
2022-11-05T21:46:34.813Z,8.89
2022-11-05T21:49:04.150Z,8.91
2022-11-05T21:51:49.649Z,8.88
2022-11-05T21:54:34.998Z,8.88
2022-11-05T21:57:20.481Z,8.87
2022-11-05T21:59:52.895Z,8.93
2022-11-05T22:02:22.737Z,8.92
2022-11-05T22:04:53.252Z,8.95
2022-11-05T22:07:23.154Z,8.91
2022-11-05T22:09:51.296Z,8.91
2022-11-05T22:12:19.483Z,8.90
2022-11-05T22:14:47.440Z,8.89
2022-11-05T22:17:15.506Z,8.87
2022-11-05T22:19:43.421Z,8.91
2022-11-05T22:22:13.111Z,8.91
2022-11-05T22:24:42.090Z,8.91
2022-11-05T22:27:12.807Z,8.83
2022-11-05T22:29:40.941Z,8.80
2022-11-05T22:32:09.278Z,8.84
2022-11-05T22:34:37.181Z,8.89
2022-11-05T22:37:05.130Z,8.88
2022-11-05T22:39:34.467Z,8.87
2022-11-05T22:42:08.013Z,8.85
2022-11-05T22:44:36.633Z,8.86
2022-11-05T22:47:04.611Z,8.85
2022-11-05T22:49:32.630Z,8.85
2022-11-05T22:52:00.833Z,8.84
2022-11-05T22:54:28.879Z,8.80
2022-11-05T22:56:58.204Z,8.79
2022-11-05T22:59:26.126Z,8.77
2022-11-05T23:01:54.157Z,8.73
2022-11-05T23:04:22.076Z,8.73
2022-11-05T23:07:07.312Z,8.76
2022-11-05T23:09:53.607Z,8.74
2022-11-05T23:12:26.063Z,8.73
2022-11-05T23:14:54.144Z,8.74
2022-11-05T23:17:39.431Z,8.71
2022-11-05T23:20:26.895Z,8.68
2022-11-05T23:23:12.391Z,8.68
2022-11-05T23:25:40.333Z,8.70
2022-11-05T23:28:11.011Z,8.70
2022-11-05T23:31:03.573Z,8.74
2022-11-05T23:33:33.805Z,8.76
2022-11-05T23:36:19.271Z,8.81
2022-11-05T23:38:47.223Z,8.80
2022-11-05T23:41:32.376Z,8.79
2022-11-05T23:44:19.329Z,8.83
2022-11-05T23:47:04.416Z,8.84
2022-11-05T23:49:32.402Z,8.86
2022-11-05T23:52:00.364Z,8.91
2022-11-05T23:54:29.499Z,8.88
2022-11-05T23:56:57.371Z,8.85
2022-11-05T23:59:26.781Z,8.86
